Terminal Aerodrome Forecast
Issued by NWS Charleston, WV

Current Version | Previous Version | Graphics & Text | Print | Product List | Glossary On
Versions: 1 2 3 4 5 6 7 8 9 10 11 12 13 14 15 16 17 18 19 20 21 22 23 24 25
000
FTUS41 KRLX 150822 AAA
TAFCRW
TAF AMD
KCRW 150822Z 1508/1606 00000KT P6SM FEW250
     FM151300 18007KT P6SM FEW250
     FM151500 21010G22KT P6SM FEW120
     FM151900 22010G20KT P6SM BKN025
     FM152200 23009G16KT 6SM SHRA BR BKN025
     FM160000 22009KT 4SM SHRA BR OVC015
     FM160200 30008KT P6SM BKN025
     FM160500 32008KT 5SM BR BKN025=

USA.gov is the U.S. government's official web portal to all federal, state and local government web resources and services.